createdAt,value
2019-03-31T00:01:53.010Z,98432.05
2019-03-31T00:04:22.931Z,98431.38
2019-03-31T00:06:52.702Z,98431.81
2019-03-31T00:09:22.954Z,98429.13
2019-03-31T00:11:52.943Z,98432.64
2019-03-31T00:14:23.049Z,98432.48
2019-03-31T00:16:52.964Z,98431.16
2019-03-31T00:19:22.746Z,98424.55
2019-03-31T00:21:52.548Z,98426.41
2019-03-31T00:24:22.324Z,98429.63
2019-03-31T00:26:52.154Z,98428.07
2019-03-31T00:29:22.091Z,98428.56
2019-03-31T00:31:51.933Z,98425.98
2019-03-31T00:34:21.691Z,98426.68
2019-03-31T00:36:51.576Z,98427.34
2019-03-31T00:39:21.673Z,98426.52
2019-03-31T00:41:51.473Z,98434.90
2019-03-31T00:44:21.238Z,98431.19
2019-03-31T00:46:51.042Z,98433.84
2019-03-31T00:49:20.951Z,98436.69
2019-03-31T00:51:50.960Z,98441.20
2019-03-31T00:54:20.782Z,98434.66
2019-03-31T00:56:50.584Z,98434.98
2019-03-31T00:59:20.397Z,98431.98
2019-03-31T01:02:00.380Z,98436.95
2019-03-31T01:04:32.196Z,98439.50
2019-03-31T01:07:02.398Z,98436.64
2019-03-31T01:09:34.336Z,98438.34
2019-03-31T01:12:05.633Z,98436.08
2019-03-31T01:14:36.011Z,98433.88
2019-03-31T01:17:11.068Z,98432.47
2019-03-31T01:19:40.965Z,98438.77
2019-03-31T01:22:10.773Z,98436.20
2019-03-31T01:24:40.566Z,98435.12
2019-03-31T01:27:11.033Z,98435.58
2019-03-31T01:29:41.230Z,98432.59
2019-03-31T01:32:11.401Z,98431.80
2019-03-31T01:34:41.165Z,98421.81
2019-03-31T01:37:11.403Z,98428.38
2019-03-31T01:39:41.188Z,98434.25
2019-03-31T01:42:11.107Z,98433.13
2019-03-31T01:44:40.997Z,98430.03
2019-03-31T01:47:11.890Z,98433.13
2019-03-31T01:49:41.670Z,98429.70
2019-03-31T01:52:11.546Z,98431.22
2019-03-31T01:54:41.374Z,98433.18
2019-03-31T01:57:11.179Z,98435.58
2019-03-31T01:59:41.050Z,98438.41
2019-03-31T02:02:14.765Z,98431.59
2019-03-31T02:04:44.628Z,98425.80
2019-03-31T02:07:14.528Z,98431.84
2019-03-31T02:09:44.413Z,98429.41
2019-03-31T02:12:14.214Z,98426.77
2019-03-31T02:14:44.072Z,98429.86
2019-03-31T02:17:14.034Z,98431.56
2019-03-31T02:19:43.848Z,98433.48
2019-03-31T02:22:13.649Z,98424.95
2019-03-31T02:24:43.530Z,98423.48
2019-03-31T02:27:13.455Z,98426.46
2019-03-31T02:29:43.233Z,98422.54
2019-03-31T02:32:23.336Z,98419.67
2019-03-31T02:34:44.838Z,98418.36
2019-03-31T02:37:14.743Z,98420.55
2019-03-31T02:39:44.628Z,98420.44
2019-03-31T02:42:14.525Z,98418.09
2019-03-31T02:44:44.493Z,98411.56
2019-03-31T02:47:14.463Z,98414.93
2019-03-31T02:49:44.244Z,98416.40
2019-03-31T02:52:14.135Z,98418.86
2019-03-31T02:54:44.511Z,98410.84
2019-03-31T02:57:14.846Z,98410.05
2019-03-31T02:59:45.959Z,98412.69
2019-03-31T03:02:16.696Z,98408.72
2019-03-31T03:04:48.436Z,98407.25
2019-03-31T03:07:18.666Z,98408.95
2019-03-31T03:09:50.892Z,98406.50
2019-03-31T03:12:22.434Z,98409.72
2019-03-31T03:14:53.721Z,98413.16
2019-03-31T03:17:23.540Z,98408.56
2019-03-31T03:19:53.598Z,98413.62
2019-03-31T03:22:23.446Z,98409.01
2019-03-31T03:24:53.352Z,98411.50
2019-03-31T03:27:23.150Z,98414.60
2019-03-31T03:29:53.215Z,98410.00
2019-03-31T03:32:23.148Z,98412.34
2019-03-31T03:34:52.962Z,98409.69
2019-03-31T03:37:22.768Z,98413.47
2019-03-31T03:39:52.656Z,98410.74
2019-03-31T03:42:22.444Z,98407.00
2019-03-31T03:44:52.238Z,98406.33
2019-03-31T03:47:22.168Z,98407.69
2019-03-31T03:49:52.134Z,98402.58
2019-03-31T03:52:22.062Z,98412.66
2019-03-31T03:54:51.872Z,98406.77
2019-03-31T03:57:21.871Z,98410.73
2019-03-31T03:59:51.691Z,98404.50
2019-03-31T04:02:21.674Z,98410.74
2019-03-31T04:04:51.679Z,98408.41
2019-03-31T04:07:21.462Z,98403.53
2019-03-31T04:09:51.240Z,98410.31
2019-03-31T04:12:21.153Z,98407.03
2019-03-31T04:14:50.968Z,98408.84
2019-03-31T04:17:20.766Z,98410.41
2019-03-31T04:19:50.635Z,98409.98
2019-03-31T04:22:20.563Z,98412.62
2019-03-31T04:24:50.462Z,98411.61
2019-03-31T04:27:20.257Z,98420.57
2019-03-31T04:29:50.038Z,98422.63
2019-03-31T04:32:19.909Z,98421.98
2019-03-31T04:34:49.694Z,98423.32
2019-03-31T04:37:19.532Z,98419.23
2019-03-31T04:39:49.322Z,98421.74
2019-03-31T04:42:19.231Z,98419.27
2019-03-31T04:44:49.110Z,98425.98
2019-03-31T04:47:18.917Z,98421.88
2019-03-31T04:49:48.704Z,98420.09
2019-03-31T04:52:18.505Z,98421.92
2019-03-31T04:54:48.425Z,98438.75
2019-03-31T04:57:18.216Z,98436.32
2019-03-31T04:59:48.013Z,98436.32
2019-03-31T05:02:17.815Z,98444.34
2019-03-31T05:04:47.682Z,98446.00
2019-03-31T05:07:17.556Z,98450.22
2019-03-31T05:09:47.461Z,98454.70
2019-03-31T05:12:17.361Z,98452.75
2019-03-31T05:14:47.360Z,98453.41
2019-03-31T05:17:17.214Z,98449.08
2019-03-31T05:19:47.094Z,98448.92
2019-03-31T05:22:17.107Z,98450.83
2019-03-31T05:24:46.995Z,98444.91
2019-03-31T05:27:16.779Z,98450.76
2019-03-31T05:29:46.619Z,98449.05
2019-03-31T05:32:16.405Z,98458.11
2019-03-31T05:34:46.476Z,98457.33
2019-03-31T05:40:00.636Z,98466.45
2019-03-31T05:42:30.556Z,98464.98
2019-03-31T05:45:00.659Z,98467.25
2019-03-31T05:47:30.434Z,98462.14
2019-03-31T05:50:00.400Z,98466.08
2019-03-31T05:52:30.561Z,98466.23
2019-03-31T05:55:00.495Z,98471.95
2019-03-31T05:57:30.423Z,98467.69
2019-03-31T06:00:00.535Z,98469.05
2019-03-31T06:02:30.389Z,98469.42
2019-03-31T06:05:00.484Z,98471.66
2019-03-31T06:07:30.283Z,98476.17
2019-03-31T06:10:02.395Z,98480.17
2019-03-31T06:12:32.286Z,98474.23
2019-03-31T06:15:02.287Z,98481.02
2019-03-31T06:17:32.160Z,98482.05
2019-03-31T06:20:02.068Z,98485.77
2019-03-31T06:22:32.159Z,98486.91
2019-03-31T06:25:02.078Z,98485.91
2019-03-31T06:27:31.970Z,98482.20
2019-03-31T06:30:02.105Z,98477.73
2019-03-31T06:32:32.106Z,98483.06
2019-03-31T06:35:02.072Z,98481.72
2019-03-31T06:37:31.833Z,98490.80
2019-03-31T06:40:01.850Z,98482.81
2019-03-31T06:42:31.659Z,98481.36
2019-03-31T06:45:01.479Z,98480.82
2019-03-31T06:47:31.296Z,98482.14
2019-03-31T06:50:01.224Z,98487.48
2019-03-31T06:52:31.228Z,98491.27
2019-03-31T06:55:01.140Z,98487.44
2019-03-31T06:57:30.917Z,98486.25
2019-03-31T07:00:00.944Z,98487.66
2019-03-31T07:02:30.872Z,98483.89
2019-03-31T07:05:01.837Z,98493.20
2019-03-31T07:07:31.840Z,98479.14
2019-03-31T07:10:01.684Z,98486.66
2019-03-31T07:12:31.682Z,98483.97
2019-03-31T07:15:01.682Z,98483.13
2019-03-31T07:17:31.640Z,98485.34
2019-03-31T07:20:01.626Z,98484.50
2019-03-31T07:22:31.597Z,98480.78
2019-03-31T07:25:01.575Z,98484.84
2019-03-31T07:27:31.658Z,98483.81
2019-03-31T07:30:01.492Z,98489.06
2019-03-31T07:32:31.376Z,98481.51
2019-03-31T07:35:01.268Z,98482.55
2019-03-31T07:37:31.067Z,98484.22
2019-03-31T07:40:01.606Z,98485.48
2019-03-31T07:42:31.613Z,98487.88
2019-03-31T07:45:01.896Z,98487.52
2019-03-31T07:47:32.137Z,98487.77
2019-03-31T07:50:02.266Z,98482.88
2019-03-31T07:52:32.060Z,98484.35
2019-03-31T07:55:01.881Z,98489.73
2019-03-31T07:57:31.754Z,98475.72
2019-03-31T08:00:01.801Z,98478.83
2019-03-31T08:02:31.562Z,98478.11
2019-03-31T08:05:01.428Z,98483.79
2019-03-31T08:07:31.409Z,98482.71
2019-03-31T08:10:01.330Z,98478.09
2019-03-31T08:12:31.237Z,98479.27
2019-03-31T08:15:01.183Z,98480.67
2019-03-31T08:17:31.269Z,98483.34
2019-03-31T08:20:01.082Z,98484.42
2019-03-31T08:22:30.899Z,98483.54
2019-03-31T08:25:00.905Z,98479.86
2019-03-31T08:27:30.905Z,98477.76
2019-03-31T08:30:01.436Z,98477.29
2019-03-31T08:32:31.407Z,98475.66
2019-03-31T08:35:01.195Z,98470.06
2019-03-31T08:37:31.182Z,98476.34
2019-03-31T08:40:01.173Z,98468.41
2019-03-31T08:42:31.070Z,98473.80
2019-03-31T08:45:00.870Z,98477.83
2019-03-31T08:47:30.810Z,98475.92
2019-03-31T08:50:02.379Z,98475.08
2019-03-31T08:52:32.164Z,98474.38
2019-03-31T08:55:02.162Z,98471.33
2019-03-31T08:57:31.980Z,98469.50
2019-03-31T09:00:01.834Z,98472.08
2019-03-31T09:02:34.433Z,98468.23
2019-03-31T09:05:05.029Z,98465.06
2019-03-31T09:07:34.906Z,98468.66
2019-03-31T09:10:05.512Z,98472.75
2019-03-31T09:12:35.336Z,98472.72
2019-03-31T09:15:05.982Z,98468.67
2019-03-31T09:17:35.771Z,98462.77
2019-03-31T09:20:07.043Z,98460.22
2019-03-31T09:22:36.840Z,98464.71
2019-03-31T09:25:08.612Z,98464.89
2019-03-31T09:27:38.798Z,98461.17
2019-03-31T09:30:10.454Z,98459.11
2019-03-31T09:32:40.229Z,98459.16
2019-03-31T09:35:11.255Z,98456.11
2019-03-31T09:37:41.053Z,98453.75
2019-03-31T09:40:12.126Z,98449.86
2019-03-31T09:42:41.905Z,98451.57
2019-03-31T09:45:12.559Z,98446.31
2019-03-31T09:47:42.381Z,98452.45
2019-03-31T09:50:17.023Z,98451.83
2019-03-31T09:52:45.291Z,98447.28
2019-03-31T09:55:15.418Z,98445.72
2019-03-31T09:57:45.224Z,98435.23
2019-03-31T10:00:15.738Z,98433.19
2019-03-31T10:02:45.523Z,98430.16
2019-03-31T10:05:15.599Z,98428.52
2019-03-31T10:07:46.945Z,98434.02
2019-03-31T10:10:38.377Z,98425.58
2019-03-31T10:13:08.351Z,98421.72
2019-03-31T10:15:38.271Z,98419.28
2019-03-31T10:18:08.053Z,98415.93
2019-03-31T10:20:37.910Z,98412.19
2019-03-31T10:23:07.713Z,98409.34
2019-03-31T10:25:37.591Z,98405.19
2019-03-31T10:28:07.925Z,98409.84
2019-03-31T10:30:38.706Z,98409.03
2019-03-31T10:33:08.991Z,98394.92
2019-03-31T10:35:39.233Z,98394.59
2019-03-31T10:38:09.023Z,98395.20
2019-03-31T10:40:38.923Z,98388.64
2019-03-31T10:43:08.725Z,98380.77
2019-03-31T10:45:38.699Z,98384.44
2019-03-31T10:48:19.753Z,98379.63
2019-03-31T10:50:40.149Z,98378.48
2019-03-31T10:53:10.133Z,98372.11
2019-03-31T10:55:39.950Z,98365.33
2019-03-31T10:58:09.873Z,98368.77
2019-03-31T11:00:40.147Z,98369.06
2019-03-31T11:03:10.245Z,98359.75
2019-03-31T11:05:40.190Z,98362.27
2019-03-31T11:08:10.103Z,98355.63
2019-03-31T11:10:40.018Z,98357.59
2019-03-31T11:13:09.903Z,98354.73
2019-03-31T11:15:39.938Z,98354.36
2019-03-31T11:18:09.733Z,98354.00
2019-03-31T11:20:39.672Z,98352.23
2019-03-31T11:23:20.160Z,98342.73
2019-03-31T11:25:50.191Z,98348.68
2019-03-31T11:28:20.075Z,98343.30
2019-03-31T11:30:49.891Z,98333.78
2019-03-31T11:33:19.910Z,98333.78
2019-03-31T11:35:49.751Z,98333.55
2019-03-31T11:38:19.556Z,98328.09
2019-03-31T11:40:49.409Z,98327.70
2019-03-31T11:43:19.225Z,98324.92
2019-03-31T11:45:49.122Z,98317.09
2019-03-31T11:48:19.048Z,98320.08
2019-03-31T11:50:49.172Z,98311.02
2019-03-31T11:53:18.963Z,98313.98
2019-03-31T11:55:48.798Z,98307.20
2019-03-31T11:58:18.590Z,98318.57
2019-03-31T12:00:54.069Z,98313.86
2019-03-31T12:03:24.050Z,98307.37
2019-03-31T12:05:53.976Z,98297.80
2019-03-31T12:08:23.751Z,98295.83
2019-03-31T12:10:53.762Z,98293.78
2019-03-31T12:13:23.547Z,98293.17
2019-03-31T12:15:53.355Z,98294.20
2019-03-31T12:18:23.334Z,98290.25
2019-03-31T12:20:53.152Z,98281.31
2019-03-31T12:23:23.056Z,98281.83
2019-03-31T12:25:53.084Z,98272.69
2019-03-31T12:28:23.078Z,98277.35
2019-03-31T12:30:53.083Z,98273.73
2019-03-31T12:33:22.948Z,98275.31
2019-03-31T12:35:52.772Z,98274.10
2019-03-31T12:38:22.540Z,98262.66
2019-03-31T12:40:52.412Z,98265.59
2019-03-31T12:43:22.241Z,98268.07
2019-03-31T12:45:52.129Z,98261.34
2019-03-31T12:48:22.048Z,98258.83
2019-03-31T12:50:51.930Z,98251.97
2019-03-31T12:53:21.759Z,98251.06
2019-03-31T12:55:59.970Z,98247.16
2019-03-31T12:58:23.101Z,98252.38
2019-03-31T13:00:53.326Z,98248.89
2019-03-31T13:03:23.152Z,98245.30
2019-03-31T13:05:53.044Z,98246.89
2019-03-31T13:08:23.222Z,98240.22
2019-03-31T13:10:53.130Z,98238.74
2019-03-31T13:13:22.954Z,98230.90
2019-03-31T13:15:52.746Z,98227.58
2019-03-31T13:18:22.861Z,98229.45
2019-03-31T13:20:52.955Z,98227.49
2019-03-31T13:23:22.791Z,98217.34
2019-03-31T13:25:52.615Z,98214.53
2019-03-31T13:28:22.412Z,98216.84
2019-03-31T13:30:52.201Z,98211.34
2019-03-31T13:33:22.109Z,98208.81
2019-03-31T13:35:53.365Z,98208.36
2019-03-31T13:38:23.375Z,98202.98
2019-03-31T13:40:53.254Z,98195.12
2019-03-31T13:43:23.269Z,98199.44
2019-03-31T13:45:53.153Z,98198.33
2019-03-31T13:48:23.073Z,98195.88
2019-03-31T13:50:52.945Z,98184.98
2019-03-31T13:53:22.756Z,98188.53
2019-03-31T13:55:52.540Z,98191.61
2019-03-31T13:58:23.424Z,98184.84
2019-03-31T14:00:57.067Z,98179.56
2019-03-31T14:03:25.350Z,98181.30
2019-03-31T14:05:55.164Z,98175.25
2019-03-31T14:08:26.269Z,98173.66
2019-03-31T14:10:56.605Z,98178.82
2019-03-31T14:13:26.483Z,98179.74
2019-03-31T14:15:56.246Z,98184.34
2019-03-31T14:18:26.167Z,98173.34
2019-03-31T14:20:56.044Z,98167.68
2019-03-31T14:23:25.943Z,98173.42
2019-03-31T14:25:55.813Z,98172.37
2019-03-31T14:28:25.607Z,98158.53
2019-03-31T14:30:55.913Z,98167.69
2019-03-31T14:33:25.794Z,98159.52
2019-03-31T14:35:55.570Z,98156.12
2019-03-31T14:38:39.119Z,98150.42
2019-03-31T14:40:57.209Z,98153.65
2019-03-31T14:43:28.181Z,98151.95
2019-03-31T14:45:58.169Z,98152.34
2019-03-31T14:48:27.949Z,98147.95
2019-03-31T14:50:57.816Z,98148.06
2019-03-31T14:53:27.741Z,98147.98
2019-03-31T14:55:57.720Z,98147.63
2019-03-31T14:58:27.608Z,98144.84
2019-03-31T15:00:57.408Z,98146.05
2019-03-31T15:03:27.399Z,98134.75
2019-03-31T15:05:57.302Z,98133.96
2019-03-31T15:08:27.121Z,98127.09
2019-03-31T15:10:57.000Z,98123.48
2019-03-31T15:13:26.904Z,98124.28
2019-03-31T15:15:56.760Z,98123.09
2019-03-31T15:18:26.566Z,98123.91
2019-03-31T15:20:56.563Z,98121.27
2019-03-31T15:23:29.589Z,98121.03
2019-03-31T15:25:57.883Z,98118.07
2019-03-31T15:28:27.784Z,98114.73
2019-03-31T15:30:57.676Z,98115.39
2019-03-31T15:33:27.689Z,98106.03
2019-03-31T15:35:57.570Z,98113.45
2019-03-31T15:38:27.477Z,98108.90
2019-03-31T15:40:57.260Z,98110.39
2019-03-31T15:43:27.064Z,98111.17
2019-03-31T15:45:57.044Z,98109.78
2019-03-31T15:48:26.856Z,98111.99
2019-03-31T15:50:56.850Z,98113.05
2019-03-31T15:53:26.761Z,98115.84
2019-03-31T15:55:56.552Z,98107.27
2019-03-31T15:58:26.373Z,98108.78
2019-03-31T16:00:56.263Z,98112.12
2019-03-31T16:03:26.168Z,98109.29
2019-03-31T16:05:56.140Z,98111.13
2019-03-31T16:08:25.400Z,98104.47
2019-03-31T16:10:55.087Z,98110.51
2019-03-31T16:13:24.371Z,98105.02
2019-03-31T16:15:53.692Z,98102.87
2019-03-31T16:18:23.214Z,98104.62
2019-03-31T16:20:52.440Z,98106.38
2019-03-31T16:23:22.022Z,98106.77
2019-03-31T16:25:55.192Z,98108.16
2019-03-31T16:28:24.454Z,98107.92
2019-03-31T16:30:53.793Z,98108.50
2019-03-31T16:35:51.116Z,98110.72
2019-03-31T16:38:20.375Z,98107.73
2019-03-31T16:40:49.919Z,98109.97
2019-03-31T16:43:19.204Z,98105.70
2019-03-31T16:45:48.456Z,98097.92
2019-03-31T16:48:17.766Z,98105.48
2019-03-31T16:50:46.999Z,98103.87
2019-03-31T16:53:16.268Z,98104.98
2019-03-31T16:55:45.541Z,98101.14
2019-03-31T16:58:14.799Z,98098.77
2019-03-31T17:00:44.075Z,98102.13
2019-03-31T17:03:13.299Z,98104.75
2019-03-31T17:05:42.563Z,98102.33
2019-03-31T17:08:11.799Z,98101.22
2019-03-31T17:10:41.052Z,98109.13
2019-03-31T17:13:10.272Z,98108.42
2019-03-31T17:15:39.535Z,98104.50
2019-03-31T17:18:08.774Z,98101.67
2019-03-31T17:20:38.124Z,98104.30
2019-03-31T17:23:07.373Z,98107.03
2019-03-31T17:25:36.649Z,98108.91
2019-03-31T17:28:05.861Z,98116.64
2019-03-31T17:30:35.124Z,98116.95
2019-03-31T17:33:04.357Z,98118.15
2019-03-31T17:35:33.751Z,98123.64
2019-03-31T17:38:02.979Z,98124.54
2019-03-31T17:40:32.262Z,98126.82
2019-03-31T17:43:01.857Z,98130.65
2019-03-31T17:45:31.154Z,98130.15
2019-03-31T17:48:00.630Z,98136.64
2019-03-31T17:50:30.034Z,98130.14
2019-03-31T17:52:59.590Z,98139.05
2019-03-31T17:55:28.859Z,98136.56
2019-03-31T17:57:58.496Z,98142.42
2019-03-31T18:00:28.177Z,98132.98
2019-03-31T18:02:57.420Z,98133.97
2019-03-31T18:05:26.687Z,98134.25
2019-03-31T18:07:55.912Z,98136.33
2019-03-31T18:10:25.178Z,98136.24
2019-03-31T18:12:54.404Z,98138.83
2019-03-31T18:15:23.684Z,98141.23
2019-03-31T18:17:52.907Z,98146.33
2019-03-31T18:20:22.194Z,98150.50
2019-03-31T18:22:51.434Z,98152.63
2019-03-31T18:25:20.691Z,98151.78
2019-03-31T18:27:50.066Z,98158.99
2019-03-31T18:30:19.539Z,98157.58
2019-03-31T18:32:48.776Z,98161.84
2019-03-31T18:35:18.135Z,98159.85
2019-03-31T18:37:47.347Z,98162.77
2019-03-31T18:40:16.624Z,98170.48
2019-03-31T18:42:45.977Z,98172.52
2019-03-31T18:45:15.246Z,98173.77
2019-03-31T18:47:44.518Z,98179.66
2019-03-31T18:50:13.772Z,98180.88
2019-03-31T18:52:43.025Z,98190.20
2019-03-31T18:55:33.884Z,98190.86
2019-03-31T18:58:21.012Z,98198.84
2019-03-31T19:01:21.317Z,98196.01
2019-03-31T19:04:08.254Z,98199.39
2019-03-31T19:06:46.491Z,98204.40
2019-03-31T19:09:37.065Z,98202.48
2019-03-31T19:12:25.261Z,98207.54
2019-03-31T19:15:19.470Z,98204.54
2019-03-31T19:17:54.977Z,98205.75
2019-03-31T19:21:10.581Z,98204.95
2019-03-31T19:24:05.832Z,98212.45
2019-03-31T19:26:53.257Z,98221.77
2019-03-31T19:29:41.453Z,98210.97
2019-03-31T19:32:25.593Z,98222.48
2019-03-31T19:35:28.897Z,98218.95
2019-03-31T19:38:15.701Z,98228.73
2019-03-31T19:41:04.317Z,98236.84
2019-03-31T19:43:58.616Z,98236.27
2019-03-31T19:46:52.182Z,98242.25
2019-03-31T19:49:45.932Z,98242.23
2019-03-31T19:52:37.015Z,98243.84
2019-03-31T19:55:17.508Z,98244.61
2019-03-31T19:58:14.681Z,98247.53
2019-03-31T20:01:04.668Z,98251.48
2019-03-31T20:04:01.491Z,98248.41
2019-03-31T20:06:57.138Z,98258.02
2019-03-31T20:09:54.181Z,98255.74
2019-03-31T20:12:44.688Z,98255.59
2019-03-31T20:15:31.807Z,98263.97
2019-03-31T20:18:18.647Z,98263.89
2019-03-31T20:21:06.104Z,98275.86
2019-03-31T20:23:46.992Z,98276.81
2019-03-31T20:26:38.346Z,98279.25
2019-03-31T20:29:17.112Z,98273.13
2019-03-31T20:32:02.057Z,98279.80
2019-03-31T20:34:58.819Z,98272.25
2019-03-31T20:37:59.159Z,98280.37
2019-03-31T20:40:43.616Z,98279.61
2019-03-31T20:43:37.982Z,98275.77
2019-03-31T20:46:07.223Z,98271.08
2019-03-31T20:48:36.552Z,98279.36
2019-03-31T20:51:06.308Z,98276.23
2019-03-31T20:53:35.575Z,98275.42
2019-03-31T20:56:05.110Z,98285.20
2019-03-31T20:58:34.383Z,98290.94
2019-03-31T21:01:03.756Z,98294.31
2019-03-31T21:03:33.020Z,98302.31
2019-03-31T21:06:02.258Z,98301.75
2019-03-31T21:08:31.524Z,98313.80
2019-03-31T21:11:00.756Z,98306.45
2019-03-31T21:13:30.022Z,98310.08
2019-03-31T21:15:59.316Z,98310.92
2019-03-31T21:18:28.576Z,98312.66
2019-03-31T21:20:57.809Z,98306.61
2019-03-31T21:23:27.092Z,98312.99
2019-03-31T21:25:56.350Z,98318.11
2019-03-31T21:28:25.671Z,98317.17
2019-03-31T21:30:54.917Z,98315.48
2019-03-31T21:33:24.171Z,98316.34
2019-03-31T21:35:53.444Z,98311.98
2019-03-31T21:38:22.673Z,98316.33
2019-03-31T21:40:52.198Z,98313.89
2019-03-31T21:43:21.611Z,98312.59
2019-03-31T21:45:51.081Z,98318.09
2019-03-31T21:48:20.317Z,98316.91
2019-03-31T21:50:49.591Z,98315.57
2019-03-31T21:53:18.839Z,98319.30
2019-03-31T21:55:48.109Z,98316.50
2019-03-31T21:58:17.386Z,98315.67
2019-03-31T22:00:50.649Z,98313.82
2019-03-31T22:03:20.199Z,98324.58
2019-03-31T22:05:49.469Z,98324.44
2019-03-31T22:08:18.782Z,98330.52
2019-03-31T22:10:48.718Z,98322.83
2019-03-31T22:13:17.960Z,98322.98
2019-03-31T22:15:47.223Z,98328.05
2019-03-31T22:18:16.621Z,98324.55
2019-03-31T22:20:47.466Z,98326.25
2019-03-31T22:23:16.812Z,98329.89
2019-03-31T22:25:46.069Z,98327.30
2019-03-31T22:28:15.304Z,98327.66
2019-03-31T22:30:44.556Z,98328.17
2019-03-31T22:33:13.797Z,98323.87
2019-03-31T22:35:45.722Z,98319.35
2019-03-31T22:38:14.969Z,98320.95
2019-03-31T22:40:44.238Z,98317.69
2019-03-31T22:43:13.522Z,98316.52
2019-03-31T22:45:42.882Z,98319.60
2019-03-31T22:48:12.230Z,98318.34
2019-03-31T22:50:41.538Z,98318.94
2019-03-31T22:53:10.802Z,98316.34
2019-03-31T22:55:40.141Z,98320.61
2019-03-31T22:58:09.389Z,98318.09
2019-03-31T23:00:38.676Z,98318.61
2019-03-31T23:03:07.939Z,98316.03
2019-03-31T23:05:37.209Z,98322.00
2019-03-31T23:08:06.445Z,98322.00
2019-03-31T23:10:36.404Z,98320.52
2019-03-31T23:13:05.645Z,98322.42
2019-03-31T23:15:35.221Z,98322.13
2019-03-31T23:18:04.505Z,98315.66
2019-03-31T23:20:34.369Z,98314.61
2019-03-31T23:23:03.647Z,98314.73
2019-03-31T23:25:32.904Z,98323.72
2019-03-31T23:28:02.178Z,98306.45
2019-03-31T23:30:31.469Z,98313.02
2019-03-31T23:33:00.731Z,98317.59
2019-03-31T23:35:30.051Z,98312.61
2019-03-31T23:37:59.323Z,98312.83
2019-03-31T23:40:28.715Z,98312.16
2019-03-31T23:42:57.941Z,98310.28
2019-03-31T23:45:27.198Z,98305.97
2019-03-31T23:47:56.466Z,98309.39
2019-03-31T23:50:25.702Z,98306.69
2019-03-31T23:52:54.970Z,98309.47
2019-03-31T23:55:24.205Z,98306.64
2019-03-31T23:57:53.473Z,98311.75
